Currently 68°F in Pinon Hills, California, USA
68°F
68°F / 48°F
3 mph N
0.00"
Monday, May 21, 2018 1:43 PM PDT

Pinon Hills, California Weather Summary
Last 36 Hours

Temperature Winds Hourly Humidity Dewpoint
Time Report Norm Report Norm Max Gusts Precip. Rpt. Norm Rpt. Norm Pressure
1,2Mon 01:43 PM  67.6°F  73°F  3 mph N  6 mph  11 mph  0.00"  41%  27%  42°F  35°F  29.79"
Mon 01:00 PM  65.6°F  72°F  7 mph W  5 mph  13 mph  0.00"  42%  28%  41°F  35°F  29.80"
Mon 12:00 PM  65.0°F  70°F  2 mph NE  5 mph  11 mph  0.00"  43%  30%  41°F  36°F  29.80"
Mon 11:00 AM  62.6°F  68°F  7 mph SE  5 mph  10 mph  0.00"  45%  33%  40°F  37°F  29.81"
Mon 10:00 AM  59.6°F  66°F  3 mph NE  5 mph  10 mph  0.00"  52%  37%  41°F  38°F  29.81"
Mon 09:00 AM  59.8°F  64°F  1 mph NE  5 mph  9 mph  0.00"  52%  40%  42°F  38°F  29.80"
Mon 08:00 AM  56.1°F  61°F  calm  4 mph  2 mph  0.00"  62%  44%  43°F  38°F  29.79"
Mon 07:00 AM  50.3°F  57°F  calm  2 mph  3 mph  0.00"  75%  48%  42°F  37°F  29.79"
Mon 06:00 AM  48.8°F  53°F  1 mph SW  2 mph  3 mph  0.00"  76%  52%  41°F  35°F  29.78"
3Mon 05:54 AM  48.5°F  53°F  2 mph SW  3 mph  3 mph  ----  76%  52%  41°F  35°F  29.78"
Mon 05:00 AM  50.0°F  53°F  calm  3 mph  2 mph  0.00"  72%  51%  41°F  35°F  29.78"
Mon 04:00 AM  53.3°F  54°F  calm  4 mph  5 mph  0.00"  68%  50%  43°F  35°F  29.79"
Mon 03:00 AM  54.9°F  55°F  calm  4 mph  5 mph  0.00"  63%  49%  42°F  35°F  29.80"
Mon 02:00 AM  55.2°F  55°F  calm  3 mph  3 mph  0.00"  57%  48%  40°F  35°F  29.79"
Mon 01:00 AM  55.5°F  56°F  calm  4 mph  4 mph  0.00"  57%  46%  40°F  35°F  29.81"
Mon 12:00 AM  55.7°F  57°F  calm  4 mph  none  0.00"  61%  45%  42°F  36°F  29.82"
Sun 11:00 PM  56.0°F  58°F  calm  3 mph  none  0.00"  67%  47%  45°F  36°F  29.83"
Sun 10:00 PM  56.0°F  59°F  calm  4 mph  none  0.00"  69%  43%  46°F  36°F  29.83"
Sun 09:00 PM  58.3°F  60°F  calm  4 mph  6 mph  0.00"  66%  43%  47°F  36°F  29.83"
Sun 08:00 PM  63.2°F  62°F  1 mph NW  5 mph  9 mph  0.00"  51%  40%  44°F  37°F  29.82"
Sun 07:00 PM  66.8°F  66°F  calm  7 mph  10 mph  0.00"  45%  35%  44°F  36°F  29.81"
Sun 06:00 PM  71.6°F  69°F  4 mph SE  7 mph  16 mph  0.00"  39%  30%  44°F  36°F  29.81"
Sun 05:00 PM  73.1°F  71°F  9 mph SW  7 mph  16 mph  0.00"  20%  29%  28°F  36°F  29.81"
Sun 04:00 PM  75.6°F  72°F  7 mph NW  7 mph  18 mph  0.00"  17%  28%  26°F  36°F  29.82"
Sun 03:00 PM  75.7°F  72°F  4 mph SW  7 mph  16 mph  0.00"  24%  27%  35°F  35°F  29.84"
Sun 02:00 PM  74.9°F  72°F  8 mph W  6 mph  18 mph  0.00"  26%  27%  37°F  35°F  29.85"
Sun 01:00 PM  74.8°F  71°F  4 mph NW  5 mph  11 mph  0.00"  26%  28%  36°F  35°F  29.86"
Sun 12:00 PM  72.9°F  69°F  4 mph NW  6 mph  11 mph  0.00"  28%  31%  36°F  36°F  29.88"
Sun 11:00 AM  71.0°F  67°F  6 mph NW  5 mph  8 mph  0.00"  31%  34%  37°F  37°F  29.89"
Sun 10:00 AM  68.0°F  65°F  2 mph SE  4 mph  9 mph  0.00"  36%  38%  39°F  38°F  29.90"
Sun 09:00 AM  65.9°F  63°F  4 mph NW  5 mph  10 mph  0.00"  36%  41%  37°F  38°F  29.90"
Sun 08:00 AM  63.3°F  60°F  calm  4 mph  5 mph  0.00"  35%  45%  34°F  38°F  29.91"
Sun 07:00 AM  56.0°F  57°F  calm  2 mph  3 mph  0.00"  43%  50%  33°F  37°F  29.90"
Sun 06:00 AM  54.1°F  52°F  calm  2 mph  7 mph  0.00"  43%  54%  31°F  35°F  29.89"
Sun 05:00 AM  54.3°F  53°F  3 mph SW  3 mph  7 mph  0.00"  44%  53%  32°F  35°F  29.88"
Sun 04:00 AM  54.1°F  54°F  1 mph SW  4 mph  5 mph  0.00"  49%  51%  34°F  35°F  29.88"
Sun 03:00 AM  55.5°F  54°F  calm  4 mph  6 mph  0.00"  45%  50%  34°F  35°F  29.88"
Sun 02:00 AM  56.1°F  55°F  2 mph SW  3 mph  5 mph  0.00"  42%  49%  32°F  35°F  29.88"

  1. Current weather data. No green row appears if the current weather data is also the high or low for the current day.
  2. High temperature for the current day.
  3. Low temperature for the current day.

The Pinon Hills, California weather pages are a service of WeatherCurrents.
Copyright ©Mon May 21 13:43:44 PDT 2018  WeatherCurrents. All rights reserved. - Submit questions and comments - Privacy Policy

This page automatically refreshes every 10 minutes.